Aviation Digital Data Service (ADDS)

Output produced by METARs form (1022 UTC 25 June 2017)
found at http://aviationweather.gov/adds/metars/
 
KLYH 250552Z 2506/2606 00000KT P6SM BKN250 
     FM251500 31008KT P6SM SCT250 
     FM252300 27005KT P6SM SCT250